createdAt,value
2019-05-26T00:01:47.472Z,15.9
2019-05-26T00:04:19.095Z,15.9
2019-05-26T00:06:51.044Z,15.9
2019-05-26T00:09:22.738Z,15.9
2019-05-26T00:11:54.451Z,15.9
2019-05-26T00:14:26.081Z,15.9
2019-05-26T00:16:57.692Z,15.9
2019-05-26T00:19:29.218Z,15.8
2019-05-26T00:22:01.092Z,15.8
2019-05-26T00:24:32.656Z,15.8
2019-05-26T00:27:04.653Z,15.8
2019-05-26T00:29:36.338Z,15.8
2019-05-26T00:32:08.154Z,15.8
2019-05-26T00:34:39.858Z,15.8
2019-05-26T00:37:11.549Z,15.8
2019-05-26T00:39:43.104Z,15.8
2019-05-26T00:42:15.291Z,15.8
2019-05-26T00:44:46.934Z,15.9
2019-05-26T00:47:18.563Z,15.9
2019-05-26T00:49:50.087Z,15.9
2019-05-26T00:52:21.883Z,15.9
2019-05-26T00:54:53.456Z,15.9
2019-05-26T00:57:25.485Z,15.8
2019-05-26T00:59:57.010Z,15.8
2019-05-26T01:02:28.649Z,15.8
2019-05-26T01:05:00.389Z,15.7
2019-05-26T01:07:32.001Z,15.7
2019-05-26T01:10:03.609Z,15.7
2019-05-26T01:12:35.354Z,15.7
2019-05-26T01:15:06.943Z,15.6
2019-05-26T01:17:38.648Z,15.5
2019-05-26T01:20:10.289Z,15.5
2019-05-26T01:22:42.023Z,15.5
2019-05-26T01:25:13.654Z,15.5
2019-05-26T01:27:45.663Z,15.4
2019-05-26T01:31:26.056Z,15.4
2019-05-26T01:33:59.821Z,15.4
2019-05-26T01:36:33.555Z,15.4
2019-05-26T01:39:07.524Z,15.3
2019-05-26T01:41:41.312Z,15.3
2019-05-26T01:44:15.139Z,15.3
2019-05-26T01:46:49.006Z,15.3
2019-05-26T01:49:23.054Z,15.2
2019-05-26T01:51:56.660Z,15.2
2019-05-26T01:54:30.530Z,15.2
2019-05-26T01:57:04.181Z,15.2
2019-05-26T01:59:37.928Z,15.2
2019-05-26T02:02:11.582Z,15.2
2019-05-26T02:04:45.391Z,15.2
2019-05-26T02:07:19.129Z,15.2
2019-05-26T02:09:52.950Z,15.2
2019-05-26T02:12:26.661Z,15.2
2019-05-26T02:15:00.656Z,15.2
2019-05-26T02:17:34.262Z,15.2
2019-05-26T02:20:08.082Z,15.2
2019-05-26T02:22:41.799Z,15.2
2019-05-26T02:25:15.797Z,15.2
2019-05-26T02:27:49.595Z,15.2
2019-05-26T02:30:23.821Z,15.2
2019-05-26T02:32:55.959Z,15.2
2019-05-26T02:35:28.314Z,15.2
2019-05-26T02:38:00.556Z,15.2
2019-05-26T02:40:33.123Z,15.2
2019-05-26T02:43:05.333Z,15.2
2019-05-26T02:45:37.960Z,15.2
2019-05-26T02:48:10.249Z,15.2
2019-05-26T02:50:42.699Z,15.2
2019-05-26T02:53:14.893Z,15.2
2019-05-26T02:55:47.250Z,15.2
2019-05-26T02:58:19.461Z,15.1
2019-05-26T03:00:52.218Z,15.1
2019-05-26T03:03:24.572Z,15.1
2019-05-26T03:05:56.970Z,15.1
2019-05-26T03:08:29.223Z,15.1
2019-05-26T03:11:01.644Z,15.1
2019-05-26T03:13:33.960Z,15.1
2019-05-26T03:16:06.607Z,15.1
2019-05-26T03:18:38.837Z,15.1
2019-05-26T03:21:11.213Z,15.1
2019-05-26T03:23:43.366Z,15.1
2019-05-26T03:26:15.662Z,15.2
2019-05-26T03:28:47.881Z,15.1
2019-05-26T03:31:26.246Z,15.1
2019-05-26T03:34:00.088Z,15.1
2019-05-26T03:36:34.001Z,15.2
2019-05-26T03:39:07.704Z,15.1
2019-05-26T03:41:41.801Z,15.1
2019-05-26T03:44:15.599Z,15.1
2019-05-26T03:46:49.507Z,15.1
2019-05-26T03:49:23.204Z,15.1
2019-05-26T03:51:56.943Z,15
2019-05-26T03:54:30.638Z,15
2019-05-26T03:57:04.518Z,15
2019-05-26T03:59:38.519Z,15
2019-05-26T04:02:12.836Z,14.9
2019-05-26T04:04:46.603Z,14.9
2019-05-26T04:07:20.422Z,14.9
2019-05-26T04:10:06.975Z,14.9
2019-05-26T04:12:37.207Z,14.8
2019-05-26T04:15:11.010Z,14.8
2019-05-26T04:17:44.925Z,14.8
2019-05-26T04:20:18.684Z,14.8
2019-05-26T04:22:52.622Z,14.9
2019-05-26T04:25:26.601Z,14.9
2019-05-26T04:28:00.350Z,14.9
2019-05-26T04:30:34.065Z,14.9
2019-05-26T04:33:08.005Z,14.9
2019-05-26T04:35:41.810Z,14.9
2019-05-26T04:38:15.666Z,14.9
2019-05-26T04:40:49.343Z,14.9
2019-05-26T04:43:23.881Z,14.9
2019-05-26T04:45:57.665Z,14.9
2019-05-26T04:48:31.817Z,14.9
2019-05-26T04:51:05.564Z,14.9
2019-05-26T04:53:39.463Z,14.9
2019-05-26T04:56:13.188Z,15
2019-05-26T04:58:47.013Z,15
2019-05-26T05:01:20.722Z,15.1
2019-05-26T05:03:55.014Z,15.1
2019-05-26T05:06:28.906Z,15.1
2019-05-26T05:09:02.801Z,15.1
2019-05-26T05:11:36.542Z,15.2
2019-05-26T05:14:10.420Z,15.2
2019-05-26T05:16:44.277Z,15.2
2019-05-26T05:19:18.428Z,15.2
2019-05-26T05:21:50.511Z,15.3
2019-05-26T05:24:22.965Z,15.3
2019-05-26T05:26:55.126Z,15.4
2019-05-26T05:29:27.640Z,15.4
2019-05-26T05:31:26.445Z,15.5
2019-05-26T05:34:00.510Z,15.5
2019-05-26T05:36:34.490Z,15.6
2019-05-26T05:39:08.165Z,15.6
2019-05-26T05:41:41.902Z,15.7
2019-05-26T05:44:15.874Z,15.7
2019-05-26T05:46:49.626Z,15.9
2019-05-26T05:49:23.608Z,15.9
2019-05-26T05:51:57.388Z,15.9
2019-05-26T05:54:30.996Z,15.9
2019-05-26T05:57:04.774Z,16.1
2019-05-26T05:59:38.403Z,16.1
2019-05-26T06:02:12.309Z,16.2
2019-05-26T06:04:46.025Z,16.2
2019-05-26T06:07:19.988Z,16.3
2019-05-26T06:09:53.851Z,16.3
2019-05-26T06:12:27.748Z,16.5
2019-05-26T06:15:01.548Z,16.5
2019-05-26T06:17:35.560Z,16.6
2019-05-26T06:20:09.387Z,16.8
2019-05-26T06:22:43.165Z,16.8
2019-05-26T06:25:17.204Z,16.9
2019-05-26T06:27:51.618Z,17
2019-05-26T06:30:25.412Z,17.1
2019-05-26T06:32:59.248Z,17.1
2019-05-26T06:35:33.623Z,17.3
2019-05-26T06:38:07.613Z,17.4
2019-05-26T06:40:41.395Z,17.5
2019-05-26T06:43:15.556Z,17.5
2019-05-26T06:45:49.488Z,17.7
2019-05-26T06:48:27.602Z,17.7
2019-05-26T06:51:01.398Z,17.7
2019-05-26T06:53:38.117Z,17.7
2019-05-26T06:56:11.900Z,18
2019-05-26T06:58:45.925Z,18.1
2019-05-26T07:01:19.687Z,18.1
2019-05-26T07:03:53.508Z,18.1
2019-05-26T07:06:27.162Z,18.1
2019-05-26T07:09:00.980Z,18.4
2019-05-26T07:12:00.807Z,18.5
2019-05-26T07:14:17.384Z,18.5
2019-05-26T07:16:51.123Z,18.7
2019-05-26T07:19:25.058Z,18.7
2019-05-26T07:21:58.757Z,18.9
2019-05-26T07:24:33.029Z,18.9
2019-05-26T07:27:06.722Z,19.2
2019-05-26T07:29:40.649Z,19.3
2019-05-26T07:31:25.601Z,19.4
2019-05-26T07:33:59.292Z,19.4
2019-05-26T07:36:33.294Z,19.8
2019-05-26T07:39:07.001Z,19.8
2019-05-26T07:41:41.118Z,19.8
2019-05-26T07:44:14.943Z,19.8
2019-05-26T07:46:48.821Z,20
2019-05-26T07:49:22.591Z,20.1
2019-05-26T07:51:56.339Z,20.2
2019-05-26T07:54:30.159Z,20.2
2019-05-26T07:57:04.204Z,20.3
2019-05-26T07:59:37.967Z,20.3
2019-05-26T08:02:11.969Z,20.4
2019-05-26T08:04:45.973Z,20.4
2019-05-26T08:07:23.703Z,20.4
2019-05-26T08:09:57.475Z,20.4
2019-05-26T08:12:31.487Z,20.4
2019-05-26T08:15:05.231Z,20.5
2019-05-26T08:17:39.667Z,20.5
2019-05-26T08:20:13.455Z,20.4
2019-05-26T08:22:47.471Z,20.4
2019-05-26T08:25:21.173Z,20.1
2019-05-26T08:27:55.058Z,20.1
2019-05-26T08:30:28.755Z,20.1
2019-05-26T08:33:02.841Z,20.1
2019-05-26T08:35:36.620Z,20.1
2019-05-26T08:38:10.717Z,20.1
2019-05-26T08:40:44.487Z,20.1
2019-05-26T08:43:18.611Z,20.1
2019-05-26T08:45:52.399Z,20.2
2019-05-26T08:48:26.332Z,20.2
2019-05-26T08:51:00.076Z,20.2
2019-05-26T08:53:33.984Z,20.2
2019-05-26T08:56:07.807Z,20.4
2019-05-26T08:58:41.583Z,20.5
2019-05-26T09:01:15.349Z,20.4
2019-05-26T09:03:49.533Z,20.4
2019-05-26T09:06:23.227Z,20.4
2019-05-26T09:08:56.998Z,20.5
2019-05-26T09:11:30.729Z,20.4
2019-05-26T09:14:04.726Z,20.4
2019-05-26T09:16:38.574Z,20.6
2019-05-26T09:19:12.582Z,20.6
2019-05-26T09:21:46.618Z,20.6
2019-05-26T09:24:20.450Z,20.7
2019-05-26T09:26:54.147Z,20.7
2019-05-26T09:29:28.000Z,20.8
2019-05-26T09:31:26.106Z,20.8
2019-05-26T09:33:59.811Z,20.8
2019-05-26T09:36:33.625Z,20.8
2019-05-26T09:39:07.422Z,21.1
2019-05-26T09:41:41.466Z,21.1
2019-05-26T09:44:15.173Z,20.9
2019-05-26T09:46:49.502Z,20.9
2019-05-26T09:49:23.175Z,20.7
2019-05-26T09:51:57.202Z,20.7
2019-05-26T09:54:30.894Z,20.6
2019-05-26T09:57:05.023Z,20.6
2019-05-26T09:59:38.692Z,20.6
2019-05-26T10:02:12.856Z,20.6
2019-05-26T10:04:45.271Z,20.7
2019-05-26T10:07:17.675Z,20.7
2019-05-26T10:09:49.902Z,20.7
2019-05-26T10:12:22.442Z,20.7
2019-05-26T10:14:54.663Z,20.6
2019-05-26T10:17:27.451Z,20.7
2019-05-26T10:19:59.711Z,20.7
2019-05-26T10:22:32.142Z,20.7
2019-05-26T10:25:04.343Z,21.2
2019-05-26T10:27:36.803Z,21.4
2019-05-26T10:30:08.886Z,21.4
2019-05-26T10:32:41.095Z,21.4
2019-05-26T10:35:13.401Z,21.6
2019-05-26T10:37:45.719Z,21.6
2019-05-26T10:40:17.918Z,21.6
2019-05-26T10:42:50.966Z,21.6
2019-05-26T10:45:23.571Z,22.1
2019-05-26T10:47:56.009Z,22.1
2019-05-26T10:50:28.301Z,22
2019-05-26T10:53:00.892Z,22
2019-05-26T10:55:33.651Z,22
2019-05-26T10:58:06.048Z,22.1
2019-05-26T11:00:38.278Z,22.1
2019-05-26T11:03:11.101Z,21.9
2019-05-26T11:05:43.495Z,21.9
2019-05-26T11:08:15.882Z,21.8
2019-05-26T11:10:48.050Z,21.8
2019-05-26T11:13:19.893Z,21.8
2019-05-26T11:15:51.582Z,21.8
2019-05-26T11:18:23.551Z,22
2019-05-26T11:20:55.368Z,22
2019-05-26T11:23:27.344Z,22.1
2019-05-26T11:25:58.911Z,22.1
2019-05-26T11:28:30.682Z,22.1
2019-05-26T11:31:26.923Z,22.1
2019-05-26T11:34:01.513Z,22.6
2019-05-26T11:36:34.043Z,22.6
2019-05-26T11:39:06.992Z,22.6
2019-05-26T11:41:39.414Z,22.6
2019-05-26T11:44:18.984Z,22.5
2019-05-26T11:46:51.443Z,22.5
2019-05-26T11:49:24.936Z,22.3
2019-05-26T11:51:57.887Z,22.3
2019-05-26T11:54:40.707Z,22.5
2019-05-26T11:57:12.982Z,22.5
2019-05-26T11:59:47.953Z,22.4
2019-05-26T12:02:20.292Z,22.4
2019-05-26T12:04:52.561Z,22.5
2019-05-26T12:07:24.824Z,22.5
2019-05-26T12:09:57.112Z,22.5
2019-05-26T12:12:29.227Z,22.5
2019-05-26T12:15:00.921Z,22.5
2019-05-26T12:17:32.765Z,22.7
2019-05-26T12:20:06.202Z,22.7
2019-05-26T12:22:37.815Z,22.7
2019-05-26T12:25:09.715Z,22.5
2019-05-26T12:27:41.661Z,22.5
2019-05-26T12:30:13.993Z,22.5
2019-05-26T12:32:46.022Z,22.5
2019-05-26T12:35:18.210Z,22.4
2019-05-26T12:37:50.202Z,22.4
2019-05-26T12:40:22.350Z,22.4
2019-05-26T12:42:54.372Z,22.4
2019-05-26T12:45:26.671Z,22.4
2019-05-26T12:47:58.918Z,22.4
2019-05-26T12:50:33.350Z,22.1
2019-05-26T12:53:05.188Z,21.9
2019-05-26T12:55:37.428Z,21.9
2019-05-26T12:58:09.317Z,22.2
2019-05-26T13:00:55.603Z,22.2
2019-05-26T13:03:21.661Z,22.2
2019-05-26T13:05:53.613Z,22.2
2019-05-26T13:08:25.401Z,22.2
2019-05-26T13:10:57.305Z,22.2
2019-05-26T13:13:28.924Z,22.2
2019-05-26T13:16:00.818Z,22.2
2019-05-26T13:18:32.600Z,22.1
2019-05-26T13:21:04.766Z,22.1
2019-05-26T13:23:36.324Z,22
2019-05-26T13:26:08.347Z,22
2019-05-26T13:28:40.032Z,21.8
2019-05-26T13:31:26.364Z,21.8
2019-05-26T13:33:58.740Z,21.8
2019-05-26T13:36:31.341Z,21.8
2019-05-26T13:39:03.551Z,21.6
2019-05-26T13:41:36.230Z,21.6
2019-05-26T13:44:08.495Z,21.4
2019-05-26T13:46:40.803Z,21.4
2019-05-26T13:49:13.066Z,21.2
2019-05-26T13:51:45.541Z,21.2
2019-05-26T13:54:17.749Z,21.1
2019-05-26T13:56:49.994Z,21.1
2019-05-26T13:59:22.198Z,21
2019-05-26T14:01:54.729Z,21
2019-05-26T14:04:26.879Z,20.9
2019-05-26T14:06:59.571Z,20.9
2019-05-26T14:09:31.890Z,20.9
2019-05-26T14:12:04.238Z,20.9
2019-05-26T14:14:36.415Z,20.9
2019-05-26T14:17:08.797Z,20.9
2019-05-26T14:19:41.003Z,21
2019-05-26T14:22:13.521Z,21
2019-05-26T14:24:54.925Z,20.9
2019-05-26T14:27:26.944Z,20.9
2019-05-26T14:29:59.159Z,21
2019-05-26T14:32:31.670Z,21
2019-05-26T14:35:03.858Z,20.9
2019-05-26T14:37:36.379Z,20.8
2019-05-26T14:40:08.591Z,20.8
2019-05-26T14:42:41.107Z,20.8
2019-05-26T14:45:13.364Z,20.8
2019-05-26T14:47:45.798Z,20.8
2019-05-26T14:50:18.522Z,20.8
2019-05-26T14:52:51.319Z,20.8
2019-05-26T14:55:23.673Z,20.9
2019-05-26T14:57:56.254Z,20.9
2019-05-26T15:00:28.625Z,20.9
2019-05-26T15:03:01.137Z,20.9
2019-05-26T15:05:33.299Z,20.9
2019-05-26T15:08:06.043Z,20.9
2019-05-26T15:10:38.208Z,20.9
2019-05-26T15:13:10.842Z,20.9
2019-05-26T15:15:43.561Z,20.9
2019-05-26T15:18:16.505Z,20.9
2019-05-26T15:20:49.372Z,20.9
2019-05-26T15:23:22.696Z,20.9
2019-05-26T15:25:55.504Z,20.9
2019-05-26T15:28:28.189Z,21
2019-05-26T15:31:26.406Z,21
2019-05-26T15:34:00.834Z,21
2019-05-26T15:36:34.737Z,21
2019-05-26T15:39:08.838Z,21
2019-05-26T15:41:43.052Z,21
2019-05-26T15:44:15.761Z,21
2019-05-26T15:46:48.407Z,21
2019-05-26T15:49:20.942Z,21
2019-05-26T15:51:53.632Z,21
2019-05-26T15:54:27.048Z,21.1
2019-05-26T15:56:59.855Z,21.1
2019-05-26T15:59:32.852Z,21.3
2019-05-26T16:02:05.124Z,21.3
2019-05-26T16:04:37.659Z,21.4
2019-05-26T16:07:10.278Z,21.4
2019-05-26T16:09:43.100Z,21.3
2019-05-26T16:12:15.506Z,21.3
2019-05-26T16:14:49.344Z,21.3
2019-05-26T16:17:22.038Z,21.3
2019-05-26T16:19:55.022Z,21.2
2019-05-26T16:22:27.888Z,21.2
2019-05-26T16:25:00.968Z,21.2
2019-05-26T16:27:33.945Z,21.2
2019-05-26T16:30:06.532Z,21.1
2019-05-26T16:32:39.122Z,21.1
2019-05-26T16:35:12.035Z,21.1
2019-05-26T16:37:46.657Z,21.2
2019-05-26T16:40:20.091Z,21.2
2019-05-26T16:42:52.945Z,21.2
2019-05-26T16:45:26.507Z,21.1
2019-05-26T16:47:59.246Z,21
2019-05-26T16:50:32.742Z,21
2019-05-26T16:53:05.891Z,21
2019-05-26T16:55:39.068Z,21
2019-05-26T16:58:13.041Z,21
2019-05-26T17:00:45.916Z,21
2019-05-26T17:03:18.620Z,21
2019-05-26T17:06:08.701Z,21
2019-05-26T17:08:32.511Z,21
2019-05-26T17:11:06.036Z,21
2019-05-26T17:13:38.812Z,21
2019-05-26T17:16:11.707Z,21
2019-05-26T17:18:45.154Z,21
2019-05-26T17:21:18.588Z,21
2019-05-26T17:23:51.323Z,20.9
2019-05-26T17:26:24.030Z,20.9
2019-05-26T17:28:57.197Z,21
2019-05-26T17:31:26.929Z,21
2019-05-26T17:33:59.712Z,21
2019-05-26T17:36:32.324Z,21
2019-05-26T17:39:04.826Z,21
2019-05-26T17:41:37.405Z,21
2019-05-26T17:44:09.844Z,21
2019-05-26T17:46:42.223Z,21
2019-05-26T17:49:14.458Z,20.9
2019-05-26T17:51:47.899Z,20.9
2019-05-26T17:54:20.455Z,20.8
2019-05-26T17:56:53.393Z,20.8
2019-05-26T17:59:25.776Z,20.7
2019-05-26T18:01:58.403Z,20.7
2019-05-26T18:04:30.869Z,20.6
2019-05-26T18:07:03.471Z,20.6
2019-05-26T18:09:45.163Z,20.5
2019-05-26T18:12:23.771Z,20.5
2019-05-26T18:14:58.302Z,20.4
2019-05-26T18:17:48.250Z,20.4
2019-05-26T18:20:11.985Z,20.3
2019-05-26T18:22:44.825Z,20.3
2019-05-26T18:25:17.371Z,20.3
2019-05-26T18:27:49.982Z,20.3
2019-05-26T18:30:22.435Z,20.3
2019-05-26T18:32:54.979Z,20.3
2019-05-26T18:35:27.331Z,20.3
2019-05-26T18:37:59.628Z,20.2
2019-05-26T18:40:32.089Z,20.2
2019-05-26T18:43:04.541Z,20.2
2019-05-26T18:45:36.873Z,20.2
2019-05-26T18:48:09.366Z,20.1
2019-05-26T18:50:41.671Z,20.1
2019-05-26T18:53:14.114Z,20
2019-05-26T18:55:46.502Z,20
2019-05-26T18:58:19.075Z,19.8
2019-05-26T19:00:52.045Z,19.8
2019-05-26T19:03:25.329Z,19.7
2019-05-26T19:05:58.601Z,19.7
2019-05-26T19:08:32.190Z,19.7
2019-05-26T19:11:04.967Z,19.7
2019-05-26T19:13:37.678Z,19.6
2019-05-26T19:16:10.517Z,19.6
2019-05-26T19:18:43.168Z,19.5
2019-05-26T19:21:15.305Z,19.5
2019-05-26T19:23:47.792Z,19.4
2019-05-26T19:26:20.026Z,19.4
2019-05-26T19:28:52.778Z,19.3
2019-05-26T19:31:27.223Z,19.3
2019-05-26T19:34:01.428Z,19.3
2019-05-26T19:36:35.664Z,19.3
2019-05-26T19:39:07.990Z,19.1
2019-05-26T19:41:40.167Z,19.1
2019-05-26T19:44:13.288Z,19
2019-05-26T19:46:45.644Z,19
2019-05-26T19:49:18.044Z,18.9
2019-05-26T19:51:50.396Z,18.9
2019-05-26T19:54:23.019Z,18.8
2019-05-26T19:56:55.319Z,18.8
2019-05-26T19:59:28.393Z,18.8
2019-05-26T20:02:19.442Z,18.8
2019-05-26T20:04:41.543Z,18.8
2019-05-26T20:07:13.895Z,18.8
2019-05-26T20:09:45.737Z,18.7
2019-05-26T20:12:17.431Z,18.7
2019-05-26T20:14:49.268Z,18.6
2019-05-26T20:17:21.208Z,18.6
2019-05-26T20:19:53.619Z,18.5
2019-05-26T20:22:25.468Z,18.5
2019-05-26T20:24:58.045Z,18.5
2019-05-26T20:27:29.984Z,18.5
2019-05-26T20:30:02.662Z,18.4
2019-05-26T20:32:34.652Z,18.4
2019-05-26T20:35:06.650Z,18.3
2019-05-26T20:37:38.461Z,18.3
2019-05-26T20:40:10.656Z,18.3
2019-05-26T20:42:45.048Z,18.3
2019-05-26T20:45:18.718Z,18.2
2019-05-26T20:47:51.537Z,18.2
2019-05-26T20:50:30.530Z,18.2
2019-05-26T20:53:02.764Z,18.2
2019-05-26T20:55:34.511Z,18.2
2019-05-26T20:58:06.196Z,18.2
2019-05-26T21:00:38.326Z,18.2
2019-05-26T21:03:09.897Z,18.2
2019-05-26T21:05:41.854Z,18.2
2019-05-26T21:08:13.454Z,18.2
2019-05-26T21:10:45.237Z,18.2
2019-05-26T21:13:16.856Z,18.1
2019-05-26T21:15:49.036Z,18.1
2019-05-26T21:18:20.640Z,18
2019-05-26T21:20:52.398Z,18
2019-05-26T21:23:24.052Z,17.9
2019-05-26T21:25:55.698Z,17.9
2019-05-26T21:28:27.247Z,17.8
2019-05-26T21:31:27.163Z,17.8
2019-05-26T21:34:00.899Z,17.8
2019-05-26T21:36:34.703Z,17.8
2019-05-26T21:39:08.560Z,17.8
2019-05-26T21:41:42.343Z,17.8
2019-05-26T21:44:16.149Z,17.8
2019-05-26T21:46:50.372Z,17.8
2019-05-26T21:49:24.187Z,17.9
2019-05-26T21:51:58.106Z,17.9
2019-05-26T21:54:31.832Z,17.9
2019-05-26T21:57:05.729Z,17.9
2019-05-26T21:59:39.459Z,18
2019-05-26T22:02:13.683Z,18
2019-05-26T22:04:45.995Z,18
2019-05-26T22:07:18.524Z,18
2019-05-26T22:09:50.742Z,18
2019-05-26T22:12:23.105Z,18.1
2019-05-26T22:14:55.320Z,18.1
2019-05-26T22:17:27.932Z,18.2
2019-05-26T22:20:00.270Z,18.2
2019-05-26T22:22:32.796Z,18.2
2019-05-26T22:25:05.047Z,18.2
2019-05-26T22:27:37.549Z,18.2
2019-05-26T22:30:09.795Z,18.2
2019-05-26T22:32:42.217Z,18.2
2019-05-26T22:35:14.520Z,18.2
2019-05-26T22:37:47.057Z,18.2
2019-05-26T22:40:19.499Z,18.2
2019-05-26T22:42:52.995Z,18.2
2019-05-26T22:45:26.066Z,18.2
2019-05-26T22:47:58.877Z,18
2019-05-26T22:50:31.600Z,18
2019-05-26T22:53:04.452Z,17.9
2019-05-26T22:55:36.707Z,17.9
2019-05-26T22:58:09.114Z,17.8
2019-05-26T23:00:41.430Z,17.7
2019-05-26T23:03:14.407Z,17.7
2019-05-26T23:05:46.168Z,17.7
2019-05-26T23:08:17.871Z,17.5
2019-05-26T23:10:49.546Z,17.5
2019-05-26T23:13:21.534Z,17.5
2019-05-26T23:15:53.146Z,17.4
2019-05-26T23:18:24.999Z,17.3
2019-05-26T23:20:56.708Z,17.3
2019-05-26T23:23:28.505Z,17.3
2019-05-26T23:26:00.087Z,17.2
2019-05-26T23:28:31.939Z,17.2
2019-05-26T23:31:25.885Z,17.1
2019-05-26T23:34:00.089Z,17.1
2019-05-26T23:36:32.329Z,17.1
2019-05-26T23:39:04.971Z,17.1
2019-05-26T23:41:37.216Z,17.1
2019-05-26T23:44:09.789Z,17.1
2019-05-26T23:46:42.054Z,17
2019-05-26T23:49:14.454Z,17
2019-05-26T23:51:46.809Z,16.9
2019-05-26T23:54:19.236Z,16.9
2019-05-26T23:56:51.433Z,16.9
2019-05-26T23:59:23.911Z,16.9
